FIL weather

Fillmore Municipal Airport
Fillmore, Utah, United States

Public forecast

Using degrees Fahrenheit for public forecast. Weather courtesy of forecast.io.

METAR (pilot weather report)

Closest report is Delta Municipal Airport, 26.2 nm (48.6 km) NNW. Retrieved 2019/08/23 09:35 UTC (19 minutes ago):

KDTA 230935Z AUTO 00000KT 10SM CLR 16/M01 A2996 RMK AO1

TAF (pilot weather forecast)

Closest forecast is Bryce Canyon Airport, 75.9 nm (140.5 km) S. Retrieved 2019/08/23 06:28 UTC (3 hours ago):

TAF KBCE 230526Z 2306/2406 27008KT P6SM SKC FM231000 25005KT 4SM FU HZ SKC FM231500 21007KT P6SM SKC FM231800 25012G20KT P6SM SKC FM240300 27006KT P6SM SKC